sensor_id;sensor_type;location;lat;lon;timestamp;pressure;altitude;pressure_sealevel;temperature;humidity
77205;BME280;66188;46.626;18.866;2023-02-15T00:00:08;101971.16;;;15.73;32.08
77205;BME280;66188;46.626;18.866;2023-02-15T00:02:35;101972.66;;;15.66;32.19
77205;BME280;66188;46.626;18.866;2023-02-15T00:05:01;101969.25;;;15.64;32.65
77205;BME280;66188;46.626;18.866;2023-02-15T00:07:26;101974.22;;;15.69;32.70
77205;BME280;66188;46.626;18.866;2023-02-15T00:09:52;101971.94;;;15.64;32.13
77205;BME280;66188;46.626;18.866;2023-02-15T00:12:17;101977.31;;;15.64;32.84
77205;BME280;66188;46.626;18.866;2023-02-15T00:14:43;101972.34;;;15.60;32.34
77205;BME280;66188;46.626;18.866;2023-02-15T00:17:08;101982.94;;;15.61;32.73
77205;BME280;66188;46.626;18.866;2023-02-15T00:19:34;101980.41;;;15.60;32.57
77205;BME280;66188;46.626;18.866;2023-02-15T00:21:59;101977.88;;;15.58;32.34
77205;BME280;66188;46.626;18.866;2023-02-15T00:24:25;101964.09;;;15.52;32.34
77205;BME280;66188;46.626;18.866;2023-02-15T00:26:51;101968.34;;;15.54;32.31
77205;BME280;66188;46.626;18.866;2023-02-15T00:29:18;101968.63;;;15.51;32.36
77205;BME280;66188;46.626;18.866;2023-02-15T00:31:44;101948.19;;;15.39;32.51
77205;BME280;66188;46.626;18.866;2023-02-15T00:34:21;101960.63;;;15.40;32.53
77205;BME280;66188;46.626;18.866;2023-02-15T00:36:48;101962.31;;;15.41;32.97
77205;BME280;66188;46.626;18.866;2023-02-15T00:39:14;101970.72;;;15.48;32.86
77205;BME280;66188;46.626;18.866;2023-02-15T00:41:40;101968.28;;;15.45;32.53
77205;BME280;66188;46.626;18.866;2023-02-15T00:44:10;101960.47;;;15.42;32.54
77205;BME280;66188;46.626;18.866;2023-02-15T00:46:36;101959.06;;;15.38;33.09
77205;BME280;66188;46.626;18.866;2023-02-15T00:49:02;101963.31;;;15.40;32.98
77205;BME280;66188;46.626;18.866;2023-02-15T00:51:28;101954.66;;;15.37;32.95
77205;BME280;66188;46.626;18.866;2023-02-15T00:53:54;101953.69;;;15.38;32.70
77205;BME280;66188;46.626;18.866;2023-02-15T00:56:19;101956.72;;;15.33;32.97
77205;BME280;66188;46.626;18.866;2023-02-15T00:58:45;101962.09;;;15.33;32.79
77205;BME280;66188;46.626;18.866;2023-02-15T01:01:13;101957.72;;;15.32;32.54
77205;BME280;66188;46.626;18.866;2023-02-15T01:03:39;101953.34;;;15.31;33.29
77205;BME280;66188;46.626;18.866;2023-02-15T01:06:07;101952.63;;;15.29;32.93
77205;BME280;66188;46.626;18.866;2023-02-15T01:08:33;101952.03;;;15.26;33.36
77205;BME280;66188;46.626;18.866;2023-02-15T01:11:06;101950.34;;;15.25;32.45
77205;BME280;66188;46.626;18.866;2023-02-15T01:13:32;101935.75;;;15.17;33.02
77205;BME280;66188;46.626;18.866;2023-02-15T01:15:59;101952.03;;;15.26;32.46
77205;BME280;66188;46.626;18.866;2023-02-15T01:18:25;101947.78;;;15.23;32.90
77205;BME280;66188;46.626;18.866;2023-02-15T01:20:50;101945.22;;;15.22;32.70
77205;BME280;66188;46.626;18.866;2023-02-15T01:23:16;101951.72;;;15.19;32.93
77205;BME280;66188;46.626;18.866;2023-02-15T01:25:41;101951.00;;;15.17;32.70
77205;BME280;66188;46.626;18.866;2023-02-15T01:28:07;101938.69;;;15.14;33.13
77205;BME280;66188;46.626;18.866;2023-02-15T01:30:33;101939.91;;;15.10;32.85
77205;BME280;66188;46.626;18.866;2023-02-15T01:32:58;101922.09;;;15.00;33.50
77205;BME280;66188;46.626;18.866;2023-02-15T01:35:26;101925.94;;;15.07;33.02
77205;BME280;66188;46.626;18.866;2023-02-15T01:37:52;101944.31;;;15.11;33.18
77205;BME280;66188;46.626;18.866;2023-02-15T01:40:18;101943.72;;;15.08;32.51
77205;BME280;66188;46.626;18.866;2023-02-15T01:42:44;101943.84;;;15.06;33.06
77205;BME280;66188;46.626;18.866;2023-02-15T01:45:20;101946.53;;;15.06;32.75
77205;BME280;66188;46.626;18.866;2023-02-15T01:48:05;101941.31;;;15.05;33.22
77205;BME280;66188;46.626;18.866;2023-02-15T01:50:38;101943.25;;;15.03;32.59
77205;BME280;66188;46.626;18.866;2023-02-15T01:53:26;101950.56;;;15.01;33.45
77205;BME280;66188;46.626;18.866;2023-02-15T01:55:59;101940.38;;;14.95;32.51
77205;BME280;66188;46.626;18.866;2023-02-15T01:58:27;101949.59;;;15.02;32.99
77205;BME280;66188;46.626;18.866;2023-02-15T02:00:58;101947.78;;;15.02;33.33
77205;BME280;66188;46.626;18.866;2023-02-15T02:03:39;101940.97;;;14.98;32.77
77205;BME280;66188;46.626;18.866;2023-02-15T02:06:07;101942.78;;;14.98;32.91
77205;BME280;66188;46.626;18.866;2023-02-15T02:08:33;101934.88;;;14.96;32.51
77205;BME280;66188;46.626;18.866;2023-02-15T02:10:59;101931.59;;;14.93;33.35
77205;BME280;66188;46.626;18.866;2023-02-15T02:13:24;101946.72;;;14.94;33.12
77205;BME280;66188;46.626;18.866;2023-02-15T02:21:47;101939.06;;;14.89;33.11
77205;BME280;66188;46.626;18.866;2023-02-15T02:27:22;101942.97;;;14.85;33.39
77205;BME280;66188;46.626;18.866;2023-02-15T02:30:27;101937.59;;;14.85;32.84
77205;BME280;66188;46.626;18.866;2023-02-15T02:46:08;101940.06;;;14.77;33.38
77205;BME280;66188;46.626;18.866;2023-02-15T02:48:37;101928.16;;;14.70;32.55
77205;BME280;66188;46.626;18.866;2023-02-15T02:51:03;101941.91;;;14.77;32.59
77205;BME280;66188;46.626;18.866;2023-02-15T02:53:30;101932.78;;;14.68;32.70
77205;BME280;66188;46.626;18.866;2023-02-15T02:56:00;101944.84;;;14.74;33.25
77205;BME280;66188;46.626;18.866;2023-02-15T02:58:37;101943.28;;;14.71;32.33
77205;BME280;66188;46.626;18.866;2023-02-15T03:01:24;101935.22;;;14.71;32.73
77205;BME280;66188;46.626;18.866;2023-02-15T03:03:58;101945.22;;;14.69;32.69
77205;BME280;66188;46.626;18.866;2023-02-15T03:06:44;101937.69;;;14.63;33.57
77205;BME280;66188;46.626;18.866;2023-02-15T03:09:25;101952.41;;;14.69;33.02
77205;BME280;66188;46.626;18.866;2023-02-15T03:12:00;101953.38;;;14.68;32.89
77205;BME280;66188;46.626;18.866;2023-02-15T03:14:27;101941.09;;;14.65;32.79
77205;BME280;66188;46.626;18.866;2023-02-15T03:16:54;101942.09;;;14.64;33.38
77205;BME280;66188;46.626;18.866;2023-02-15T03:19:26;101946.69;;;14.62;32.90
77205;BME280;66188;46.626;18.866;2023-02-15T03:21:56;101949.38;;;14.62;33.31
77205;BME280;66188;46.626;18.866;2023-02-15T03:24:35;101950.38;;;14.61;32.59
77205;BME280;66188;46.626;18.866;2023-02-15T03:27:06;101946.81;;;14.61;32.86
77205;BME280;66188;46.626;18.866;2023-02-15T03:29:34;101956.81;;;14.59;32.71
77205;BME280;66188;46.626;18.866;2023-02-15T03:32:03;101954.25;;;14.57;32.94
77205;BME280;66188;46.626;18.866;2023-02-15T03:34:30;101956.94;;;14.57;32.11
77205;BME280;66188;46.626;18.866;2023-02-15T03:40:09;101952.44;;;14.57;32.43
77205;BME280;66188;46.626;18.866;2023-02-15T03:43:04;101951.00;;;14.53;32.98
77205;BME280;66188;46.626;18.866;2023-02-15T03:45:36;101952.81;;;14.53;32.69
77205;BME280;66188;46.626;18.866;2023-02-15T03:48:04;101940.91;;;14.46;32.57
77205;BME280;66188;46.626;18.866;2023-02-15T03:50:32;101951.25;;;14.50;33.12
77205;BME280;66188;46.626;18.866;2023-02-15T03:53:20;101948.56;;;14.50;32.82
77205;BME280;66188;46.626;18.866;2023-02-15T03:55:47;101944.16;;;14.49;32.67
77205;BME280;66188;46.626;18.866;2023-02-15T03:58:13;101943.44;;;14.47;32.69
77205;BME280;66188;46.626;18.866;2023-02-15T04:00:59;101940.78;;;14.47;33.33
77205;BME280;66188;46.626;18.866;2023-02-15T04:04:18;101947.94;;;14.47;32.15
77205;BME280;66188;46.626;18.866;2023-02-15T04:06:44;101930.69;;;14.40;32.51
77205;BME280;66188;46.626;18.866;2023-02-15T04:09:12;101942.00;;;14.43;32.64
77205;BME280;66188;46.626;18.866;2023-02-15T04:11:56;101915.25;;;14.32;32.68
77205;BME280;66188;46.626;18.866;2023-02-15T04:14:21;101936.91;;;14.40;32.54
77205;BME280;66188;46.626;18.866;2023-02-15T04:17:07;101940.53;;;14.39;32.42
77205;BME280;66188;46.626;18.866;2023-02-15T04:19:32;101913.75;;;14.28;32.37
77205;BME280;66188;46.626;18.866;2023-02-15T04:22:16;101936.19;;;14.38;32.22
77205;BME280;66188;46.626;18.866;2023-02-15T04:25:00;101935.47;;;14.36;32.46
77205;BME280;66188;46.626;18.866;2023-02-15T04:27:36;101938.97;;;14.37;32.66
77205;BME280;66188;46.626;18.866;2023-02-15T04:30:02;101942.63;;;14.36;32.64
77205;BME280;66188;46.626;18.866;2023-02-15T04:32:28;101931.19;;;14.34;33.27
77205;BME280;66188;46.626;18.866;2023-02-15T04:34:54;101927.97;;;14.29;32.33
77205;BME280;66188;46.626;18.866;2023-02-15T04:37:20;101947.38;;;14.32;32.37
77205;BME280;66188;46.626;18.866;2023-02-15T04:39:45;101940.19;;;14.33;31.65
77205;BME280;66188;46.626;18.866;2023-02-15T04:42:11;101940.31;;;14.31;32.37
77205;BME280;66188;46.626;18.866;2023-02-15T04:44:36;101943.94;;;14.30;32.53
77205;BME280;66188;46.626;18.866;2023-02-15T04:47:02;101943.09;;;14.30;32.43
77205;BME280;66188;46.626;18.866;2023-02-15T04:49:28;101937.00;;;14.28;32.29
77205;BME280;66188;46.626;18.866;2023-02-15T04:51:53;101945.16;;;14.26;32.46
77205;BME280;66188;46.626;18.866;2023-02-15T04:54:18;101947.09;;;14.24;32.54
77205;BME280;66188;46.626;18.866;2023-02-15T04:56:44;101938.97;;;14.26;32.32
77205;BME280;66188;46.626;18.866;2023-02-15T04:59:11;101938.22;;;14.24;32.42
77205;BME280;66188;46.626;18.866;2023-02-15T05:01:36;101943.47;;;14.25;33.04
77205;BME280;66188;46.626;18.866;2023-02-15T05:04:02;101947.25;;;14.23;32.21
77205;BME280;66188;46.626;18.866;2023-02-15T05:06:29;101941.03;;;14.22;32.28
77205;BME280;66188;46.626;18.866;2023-02-15T05:08:54;101936.16;;;14.16;32.29
77205;BME280;66188;46.626;18.866;2023-02-15T05:11:20;101949.31;;;14.19;32.25
77205;BME280;66188;46.626;18.866;2023-02-15T05:13:45;101937.00;;;14.17;31.69
77205;BME280;66188;46.626;18.866;2023-02-15T05:16:11;101951.03;;;14.20;31.78
77205;BME280;66188;46.626;18.866;2023-02-15T05:18:36;101945.66;;;14.20;32.37
77205;BME280;66188;46.626;18.866;2023-02-15T05:21:02;101954.91;;;14.16;33.00
77205;BME280;66188;46.626;18.866;2023-02-15T05:23:28;101944.19;;;14.16;32.15
77205;BME280;66188;46.626;18.866;2023-02-15T05:25:53;101940.31;;;14.09;32.05
77205;BME280;66188;46.626;18.866;2023-02-15T05:28:38;101941.31;;;14.08;32.68
77205;BME280;66188;46.626;18.866;2023-02-15T05:31:07;101957.56;;;14.16;32.54
77205;BME280;66188;46.626;18.866;2023-02-15T05:33:35;101963.78;;;14.17;32.17
77205;BME280;66188;46.626;18.866;2023-02-15T05:36:01;101958.56;;;14.15;32.60
77205;BME280;66188;46.626;18.866;2023-02-15T05:38:26;101958.69;;;14.14;32.35
77205;BME280;66188;46.626;18.866;2023-02-15T05:40:52;101953.31;;;14.14;32.63
77205;BME280;66188;46.626;18.866;2023-02-15T05:43:18;101953.47;;;14.12;32.62
77205;BME280;66188;46.626;18.866;2023-02-15T05:45:48;101956.84;;;14.14;32.63
77205;BME280;66188;46.626;18.866;2023-02-15T05:48:14;101963.22;;;14.13;32.70
77205;BME280;66188;46.626;18.866;2023-02-15T05:50:40;101947.63;;;14.07;31.95
77205;BME280;66188;46.626;18.866;2023-02-15T05:53:05;101956.28;;;14.11;32.47
77205;BME280;66188;46.626;18.866;2023-02-15T05:55:31;101957.38;;;14.08;32.05
77205;BME280;66188;46.626;18.866;2023-02-15T05:57:57;101965.97;;;14.12;32.30
77205;BME280;66188;46.626;18.866;2023-02-15T06:00:22;101965.25;;;14.10;32.75
77205;BME280;66188;46.626;18.866;2023-02-15T06:02:48;101965.25;;;14.10;32.03
77205;BME280;66188;46.626;18.866;2023-02-15T06:05:14;101957.59;;;14.05;32.30
77205;BME280;66188;46.626;18.866;2023-02-15T06:07:39;101966.22;;;14.09;32.92
77205;BME280;66188;46.626;18.866;2023-02-15T06:10:07;101971.56;;;14.09;31.84
77205;BME280;66188;46.626;18.866;2023-02-15T06:12:33;101976.09;;;14.08;32.34
77205;BME280;66188;46.626;18.866;2023-02-15T06:14:59;101977.06;;;14.07;32.04
77205;BME280;66188;46.626;18.866;2023-02-15T06:17:24;101984.13;;;14.08;32.49
77205;BME280;66188;46.626;18.866;2023-02-15T06:19:50;101984.13;;;14.08;32.98
77205;BME280;66188;46.626;18.866;2023-02-15T06:22:15;101987.53;;;14.10;32.08
77205;BME280;66188;46.626;18.866;2023-02-15T06:24:41;101977.56;;;14.12;32.38
77205;BME280;66188;46.626;18.866;2023-02-15T06:27:08;101993.38;;;14.15;32.42
77205;BME280;66188;46.626;18.866;2023-02-15T06:29:34;101989.13;;;14.13;32.24
77205;BME280;66188;46.626;18.866;2023-02-15T06:32:00;101987.16;;;14.15;32.37
77205;BME280;66188;46.626;18.866;2023-02-15T06:34:25;101996.66;;;14.19;31.83
77205;BME280;66188;46.626;18.866;2023-02-15T06:36:52;102002.84;;;14.19;32.45
77205;BME280;66188;46.626;18.866;2023-02-15T06:39:18;101998.34;;;14.20;31.72
77205;BME280;66188;46.626;18.866;2023-02-15T06:41:43;101987.66;;;14.20;32.16
77205;BME280;66188;46.626;18.866;2023-02-15T06:44:09;101995.38;;;13.56;32.92
77205;BME280;66188;46.626;18.866;2023-02-15T06:46:34;101994.84;;;13.40;32.46
77205;BME280;66188;46.626;18.866;2023-02-15T06:49:00;101987.00;;;13.61;32.45
77205;BME280;66188;46.626;18.866;2023-02-15T06:51:25;102004.69;;;13.85;31.96
77205;BME280;66188;46.626;18.866;2023-02-15T06:53:51;102003.00;;;13.96;32.10
77205;BME280;66188;46.626;18.866;2023-02-15T06:56:16;102006.03;;;14.02;32.99
77205;BME280;66188;46.626;18.866;2023-02-15T06:58:42;102002.13;;;14.06;31.40
77205;BME280;66188;46.626;18.866;2023-02-15T07:01:09;102011.50;;;14.12;32.33
77205;BME280;66188;46.626;18.866;2023-02-15T07:03:34;102011.25;;;14.15;31.77
77205;BME280;66188;46.626;18.866;2023-02-15T07:06:02;101999.69;;;14.14;32.34
77205;BME280;66188;46.626;18.866;2023-02-15T07:08:28;102007.50;;;14.17;32.69
77205;BME280;66188;46.626;18.866;2023-02-15T07:10:55;102003.84;;;14.18;32.32
77205;BME280;66188;46.626;18.866;2023-02-15T07:13:41;102003.84;;;14.18;32.14
77205;BME280;66188;46.626;18.866;2023-02-15T07:16:08;101995.06;;;14.16;31.91
77205;BME280;66188;46.626;18.866;2023-02-15T07:18:34;102006.03;;;14.24;31.88
77205;BME280;66188;46.626;18.866;2023-02-15T07:20:59;102010.28;;;14.27;32.31
77205;BME280;66188;46.626;18.866;2023-02-15T07:23:25;102012.72;;;14.30;32.82
77205;BME280;66188;46.626;18.866;2023-02-15T07:25:59;101999.69;;;14.25;31.92
77205;BME280;66188;46.626;18.866;2023-02-15T07:28:25;102008.97;;;14.32;31.79
77205;BME280;66188;46.626;18.866;2023-02-15T07:30:51;102003.63;;;14.32;32.19
77205;BME280;66188;46.626;18.866;2023-02-15T07:33:16;102011.28;;;14.37;32.01
77205;BME280;66188;46.626;18.866;2023-02-15T07:35:49;102009.59;;;14.36;31.56
77205;BME280;66188;46.626;18.866;2023-02-15T07:38:15;102005.09;;;14.36;32.04
77205;BME280;66188;46.626;18.866;2023-02-15T07:40:42;102004.00;;;14.39;32.01
77205;BME280;66188;46.626;18.866;2023-02-15T07:43:08;102006.78;;;14.37;32.32
77205;BME280;66188;46.626;18.866;2023-02-15T07:45:33;102000.47;;;14.38;32.41
77205;BME280;66188;46.626;18.866;2023-02-15T07:48:00;101989.75;;;14.38;32.52
77205;BME280;66188;46.626;18.866;2023-02-15T07:50:26;101993.16;;;14.40;32.44
77205;BME280;66188;46.626;18.866;2023-02-15T07:52:52;101994.09;;;14.39;32.58
77205;BME280;66188;46.626;18.866;2023-02-15T07:55:17;101984.25;;;14.40;31.75
77205;BME280;66188;46.626;18.866;2023-02-15T07:57:44;101976.47;;;14.37;32.51
77205;BME280;66188;46.626;18.866;2023-02-15T08:00:12;101980.59;;;14.41;32.52
77205;BME280;66188;46.626;18.866;2023-02-15T08:02:38;101981.72;;;14.38;32.67
77205;BME280;66188;46.626;18.866;2023-02-15T08:05:04;101966.03;;;14.34;32.58
77205;BME280;66188;46.626;18.866;2023-02-15T08:07:31;101982.19;;;14.43;32.59
77205;BME280;66188;46.626;18.866;2023-02-15T08:09:57;101992.75;;;14.45;32.64
77205;BME280;66188;46.626;18.866;2023-02-15T08:12:26;101990.94;;;14.45;33.01
77205;BME280;66188;46.626;18.866;2023-02-15T08:14:51;101987.41;;;14.45;32.26
77205;BME280;66188;46.626;18.866;2023-02-15T08:17:17;101988.50;;;14.42;32.34
77205;BME280;66188;46.626;18.866;2023-02-15T08:19:43;101995.44;;;14.45;33.24
77205;BME280;66188;46.626;18.866;2023-02-15T08:22:13;101990.69;;;14.48;32.29
77205;BME280;66188;46.626;18.866;2023-02-15T08:24:39;101988.13;;;14.47;32.83
77205;BME280;66188;46.626;18.866;2023-02-15T08:27:08;101999.69;;;14.47;32.90
77205;BME280;66188;46.626;18.866;2023-02-15T08:29:35;101992.28;;;14.51;33.09
77205;BME280;66188;46.626;18.866;2023-02-15T08:32:03;101988.03;;;14.48;33.06
77205;BME280;66188;46.626;18.866;2023-02-15T08:34:32;101985.34;;;14.48;32.84
77205;BME280;66188;46.626;18.866;2023-02-15T08:36:57;101969.03;;;14.40;33.01
77205;BME280;66188;46.626;18.866;2023-02-15T08:39:23;101986.78;;;14.52;32.94
77205;BME280;66188;46.626;18.866;2023-02-15T08:41:49;101978.75;;;14.52;32.31
77205;BME280;66188;46.626;18.866;2023-02-15T08:44:17;101985.69;;;14.55;33.47
77205;BME280;66188;46.626;18.866;2023-02-15T08:46:44;101983.72;;;14.57;32.62
77205;BME280;66188;46.626;18.866;2023-02-15T08:49:16;101992.38;;;14.61;32.67
77205;BME280;66188;46.626;18.866;2023-02-15T08:51:42;101993.34;;;14.60;32.92
77205;BME280;66188;46.626;18.866;2023-02-15T08:54:11;101982.50;;;14.61;33.23
77205;BME280;66188;46.626;18.866;2023-02-15T08:56:39;101990.41;;;14.63;32.79
77205;BME280;66188;46.626;18.866;2023-02-15T08:59:06;101991.28;;;14.63;32.84
77205;BME280;66188;46.626;18.866;2023-02-15T09:01:33;101988.47;;;14.65;32.82
77205;BME280;66188;46.626;18.866;2023-02-15T09:04:04;101983.97;;;14.65;32.68
77205;BME280;66188;46.626;18.866;2023-02-15T09:06:31;101980.41;;;14.65;32.98
77205;BME280;66188;46.626;18.866;2023-02-15T09:08:57;101985.78;;;14.65;33.76
77205;BME280;66188;46.626;18.866;2023-02-15T09:11:28;101984.81;;;14.66;33.55
77205;BME280;66188;46.626;18.866;2023-02-15T09:14:02;101966.53;;;14.60;33.48
77205;BME280;66188;46.626;18.866;2023-02-15T09:16:29;101984.81;;;14.66;32.74
77205;BME280;66188;46.626;18.866;2023-02-15T09:18:56;101980.41;;;14.65;33.01
77205;BME280;66188;46.626;18.866;2023-02-15T09:21:27;101983.00;;;14.66;33.20
77205;BME280;66188;46.626;18.866;2023-02-15T09:23:56;101982.28;;;14.64;33.74
77205;BME280;66188;46.626;18.866;2023-02-15T09:26:23;101986.63;;;14.65;33.14
77205;BME280;66188;46.626;18.866;2023-02-15T09:28:52;101975.34;;;14.62;32.79
77205;BME280;66188;46.626;18.866;2023-02-15T09:31:20;101988.47;;;14.65;33.42
77205;BME280;66188;46.626;18.866;2023-02-15T09:33:47;101985.91;;;14.63;33.61
77205;BME280;66188;46.626;18.866;2023-02-15T09:38:42;101980.94;;;14.59;33.70
77205;BME280;66188;46.626;18.866;2023-02-15T10:00:12;101961.25;;;14.48;33.86
77205;BME280;66188;46.626;18.866;2023-02-15T10:13:44;101951.47;;;14.47;33.97
77205;BME280;66188;46.626;18.866;2023-02-15T10:21:45;101952.97;;;14.51;34.23
77205;BME280;66188;46.626;18.866;2023-02-15T10:26:50;101938.69;;;14.51;34.05
77205;BME280;66188;46.626;18.866;2023-02-15T10:29:35;101949.66;;;14.48;34.05
77205;BME280;66188;46.626;18.866;2023-02-15T10:34:51;101936.13;;;14.49;34.60
77205;BME280;66188;46.626;18.866;2023-02-15T10:40:04;101933.44;;;14.49;34.10
77205;BME280;66188;46.626;18.866;2023-02-15T10:50:20;101921.63;;;14.52;34.57
77205;BME280;66188;46.626;18.866;2023-02-15T10:55:49;101905.56;;;14.52;34.61
77205;BME280;66188;46.626;18.866;2023-02-15T11:06:54;101900.34;;;14.50;35.11
77205;BME280;66188;46.626;18.866;2023-02-15T11:09:24;101895.22;;;14.47;34.70
77205;BME280;66188;46.626;18.866;2023-02-15T11:11:53;101891.84;;;14.45;34.73
77205;BME280;66188;46.626;18.866;2023-02-15T11:17:01;101886.63;;;14.44;35.39
77205;BME280;66188;46.626;18.866;2023-02-15T11:22:26;101882.38;;;14.41;35.38
77205;BME280;66188;46.626;18.866;2023-02-15T11:24:52;101877.25;;;14.38;35.06
77205;BME280;66188;46.626;18.866;2023-02-15T11:27:22;101874.56;;;14.38;35.21
77205;BME280;66188;46.626;18.866;2023-02-15T11:30:02;101869.06;;;14.40;35.82
77205;BME280;66188;46.626;18.866;2023-02-15T11:37:46;101848.03;;;14.35;35.52
77205;BME280;66188;46.626;18.866;2023-02-15T11:42:49;101841.97;;;14.33;34.85
77205;BME280;66188;46.626;18.866;2023-02-15T11:47:51;101836.81;;;14.30;35.55
77205;BME280;66188;46.626;18.866;2023-02-15T11:50:22;101839.41;;;14.32;35.35
77205;BME280;66188;46.626;18.866;2023-02-15T11:52:54;101830.50;;;14.31;35.48
77205;BME280;66188;46.626;18.866;2023-02-15T11:55:23;101827.94;;;14.30;35.85
77205;BME280;66188;46.626;18.866;2023-02-15T12:00:41;101823.69;;;14.27;36.02
77205;BME280;66188;46.626;18.866;2023-02-15T12:04:04;101820.03;;;14.28;35.72
77205;BME280;66188;46.626;18.866;2023-02-15T12:06:04;101820.88;;;14.29;36.37
77205;BME280;66188;46.626;18.866;2023-02-15T12:08:37;101822.81;;;14.27;36.39
77205;BME280;66188;46.626;18.866;2023-02-15T12:11:14;101823.94;;;14.24;35.52
77205;BME280;66188;46.626;18.866;2023-02-15T12:13:59;101820.78;;;14.19;36.79
77205;BME280;66188;46.626;18.866;2023-02-15T12:16:27;101830.16;;;14.25;35.90
77205;BME280;66188;46.626;18.866;2023-02-15T12:18:58;101823.81;;;14.26;35.93
77205;BME280;66188;46.626;18.866;2023-02-15T12:21:39;101818.47;;;14.26;35.82
77205;BME280;66188;46.626;18.866;2023-02-15T12:24:22;101821.16;;;14.26;36.51
77205;BME280;66188;46.626;18.866;2023-02-15T12:27:01;101812.38;;;14.24;36.07
77205;BME280;66188;46.626;18.866;2023-02-15T12:29:39;101808.88;;;14.23;36.51
77205;BME280;66188;46.626;18.866;2023-02-15T12:32:06;101809.69;;;14.24;36.66
77205;BME280;66188;46.626;18.866;2023-02-15T12:34:38;101808.00;;;14.23;35.90
77205;BME280;66188;46.626;18.866;2023-02-15T12:37:15;101804.47;;;14.22;36.26
77205;BME280;66188;46.626;18.866;2023-02-15T12:40:18;101799.97;;;14.23;36.90
77205;BME280;66188;46.626;18.866;2023-02-15T12:42:44;101797.28;;;14.23;36.31
77205;BME280;66188;46.626;18.866;2023-02-15T12:45:30;101791.09;;;14.22;36.29
77205;BME280;66188;46.626;18.866;2023-02-15T12:50:45;101784.28;;;14.18;36.71
77205;BME280;66188;46.626;18.866;2023-02-15T12:53:20;101793.91;;;14.21;35.91
77205;BME280;66188;46.626;18.866;2023-02-15T12:55:56;101786.97;;;14.18;36.70
77205;BME280;66188;46.626;18.866;2023-02-15T12:58:32;101785.25;;;14.17;36.95
77205;BME280;66188;46.626;18.866;2023-02-15T13:03:58;101782.59;;;14.17;36.86
77205;BME280;66188;46.626;18.866;2023-02-15T13:06:27;101783.31;;;14.19;36.77
77205;BME280;66188;46.626;18.866;2023-02-15T13:08:58;101781.63;;;14.18;36.64
77205;BME280;66188;46.626;18.866;2023-02-15T13:11:30;101781.63;;;14.18;36.41
77205;BME280;66188;46.626;18.866;2023-02-15T13:14:22;101775.50;;;14.16;36.87
77205;BME280;66188;46.626;18.866;2023-02-15T13:16:52;101773.13;;;14.13;36.83
77205;BME280;66188;46.626;18.866;2023-02-15T13:19:22;101771.16;;;14.15;36.95
77205;BME280;66188;46.626;18.866;2023-02-15T13:21:52;101767.63;;;14.15;36.49
77205;BME280;66188;46.626;18.866;2023-02-15T13:24:24;101764.34;;;14.11;36.84
77205;BME280;66188;46.626;18.866;2023-02-15T13:26:52;101764.22;;;14.13;37.09
77205;BME280;66188;46.626;18.866;2023-02-15T13:29:31;101748.56;;;14.08;37.29
77205;BME280;66188;46.626;18.866;2023-02-15T13:32:12;101764.09;;;14.14;36.95
77205;BME280;66188;46.626;18.866;2023-02-15T13:34:44;101757.06;;;14.13;37.13
77205;BME280;66188;46.626;18.866;2023-02-15T13:40:17;101764.34;;;14.11;36.69
77205;BME280;66188;46.626;18.866;2023-02-15T13:43:13;101761.66;;;14.11;37.28
77205;BME280;66188;46.626;18.866;2023-02-15T13:54:36;101753.06;;;14.08;37.58
77205;BME280;66188;46.626;18.866;2023-02-15T13:57:32;101743.31;;;14.07;37.03
77205;BME280;66188;46.626;18.866;2023-02-15T14:16:22;101742.84;;;14.02;37.25
77205;BME280;66188;46.626;18.866;2023-02-15T14:22:32;101742.00;;;14.01;37.25
77205;BME280;66188;46.626;18.866;2023-02-15T14:30:21;101737.63;;;14.00;37.43
77205;BME280;66188;46.626;18.866;2023-02-15T14:32:51;101734.09;;;14.00;37.12
77205;BME280;66188;46.626;18.866;2023-02-15T14:35:21;101723.88;;;13.93;37.20
77205;BME280;66188;46.626;18.866;2023-02-15T14:38:13;101728.75;;;14.00;37.44
77205;BME280;66188;46.626;18.866;2023-02-15T14:41:02;101727.44;;;13.94;37.69
77205;BME280;66188;46.626;18.866;2023-02-15T14:43:56;101719.00;;;13.99;37.01
77205;BME280;66188;46.626;18.866;2023-02-15T14:49:03;101729.25;;;13.93;37.59
77205;BME280;66188;46.626;18.866;2023-02-15T14:59:54;101726.47;;;13.95;37.81
77205;BME280;66188;46.626;18.866;2023-02-15T15:02:47;101711.38;;;13.94;38.14
77205;BME280;66188;46.626;18.866;2023-02-15T15:07:53;101719.41;;;13.94;37.16
77205;BME280;66188;46.626;18.866;2023-02-15T15:12:50;101713.06;;;13.95;37.13
77205;BME280;66188;46.626;18.866;2023-02-15T15:18:07;101709.69;;;13.93;37.25
77205;BME280;66188;46.626;18.866;2023-02-15T15:20:48;101715.03;;;13.93;37.69
77205;BME280;66188;46.626;18.866;2023-02-15T15:31:08;101703.59;;;13.91;37.36
77205;BME280;66188;46.626;18.866;2023-02-15T15:47:39;101697.78;;;13.86;38.11
77205;BME280;66188;46.626;18.866;2023-02-15T15:50:14;101691.44;;;13.87;37.80
77205;BME280;66188;46.626;18.866;2023-02-15T15:52:46;101685.25;;;13.86;37.85
77205;BME280;66188;46.626;18.866;2023-02-15T15:55:18;101691.59;;;13.85;37.74
77205;BME280;66188;46.626;18.866;2023-02-15T15:57:47;101690.75;;;13.85;37.68
77205;BME280;66188;46.626;18.866;2023-02-15T16:02:56;101686.34;;;13.84;37.59
77205;BME280;66188;46.626;18.866;2023-02-15T16:05:22;101685.38;;;13.85;37.87
77205;BME280;66188;46.626;18.866;2023-02-15T16:07:48;101688.16;;;13.83;37.79
77205;BME280;66188;46.626;18.866;2023-02-15T16:10:25;101687.34;;;13.83;37.37